Time;durP1;ratioP1;P1;durP2;ratioP2;P2;SDS_P1;SDS_P2;PMS_P1;PMS_P2;Temp;Humidity;BMP_temperature;BMP_pressure;BME280_temperature;BME280_humidity;BME280_pressure;Samples;Min_cycle;Max_cycle;Signal;HPM_P1;HPM_P2
2024/01/24 00:01:15;;;;;;;7.50;2.67;;;;;;;;;;5046191;28;20095;-64
2024/01/24 00:03:41;;;;;;;4.87;2.53;;;;;;;;;;5046053;28;20048;-64
2024/01/24 00:06:07;;;;;;;4.67;2.00;;;;;;;;;;5045840;28;20053;-63
2024/01/24 00:08:33;;;;;;;4.70;2.33;;;;;;;;;;5046075;28;20259;-64
2024/01/24 00:11:01;;;;;;;9.17;3.77;;;;;;;;;;5046848;28;20522;-64
2024/01/24 00:13:27;;;;;;;6.37;2.53;;;;;;;;;;5047436;28;20053;-64
2024/01/24 00:15:53;;;;;;;7.33;2.13;;;;;;;;;;5047891;28;20059;-64
2024/01/24 00:18:19;;;;;;;7.83;2.27;;;;;;;;;;5047682;28;20495;-64
2024/01/24 00:20:45;;;;;;;5.47;1.43;;;;;;;;;;5048182;28;20140;-64
2024/01/24 00:23:11;;;;;;;3.57;1.87;;;;;;;;;;5047681;28;20124;-64
2024/01/24 00:25:37;;;;;;;3.07;1.50;;;;;;;;;;5047515;28;20048;-64
2024/01/24 00:28:05;;;;;;;4.80;1.50;;;;;;;;;;5046865;28;20037;-63
2024/01/24 00:30:31;;;;;;;3.13;1.47;;;;;;;;;;5046560;28;20103;-64
2024/01/24 00:32:57;;;;;;;7.17;2.97;;;;;;;;;;5047838;28;20053;-64
2024/01/24 00:35:23;;;;;;;5.67;1.50;;;;;;;;;;5050862;28;20194;-64
2024/01/24 00:37:49;;;;;;;5.70;1.50;;;;;;;;;;5051092;28;20139;-64
2024/01/24 00:40:15;;;;;;;4.70;1.43;;;;;;;;;;5050873;28;20049;-64
2024/01/24 00:42:42;;;;;;;4.63;1.43;;;;;;;;;;5051280;28;20407;-64
2024/01/24 00:45:09;;;;;;;3.53;1.10;;;;;;;;;;5051558;28;20071;-64
2024/01/24 00:47:35;;;;;;;3.00;1.17;;;;;;;;;;5051330;28;20064;-63
2024/01/24 00:50:04;;;;;;;3.27;1.20;;;;;;;;;;5051541;28;20041;-63
2024/01/24 00:52:30;;;;;;;4.13;1.00;;;;;;;;;;5051031;28;20071;-63
2024/01/24 00:54:58;;;;;;;6.83;1.20;;;;;;;;;;5051632;28;20119;-63
2024/01/24 00:57:24;;;;;;;4.30;1.40;;;;;;;;;;5051051;28;20190;-63
2024/01/24 00:59:50;;;;;;;3.47;1.30;;;;;;;;;;5051210;28;20427;-63
2024/01/24 01:02:16;;;;;;;4.20;1.20;;;;;;;;;;5050499;28;20075;-63
2024/01/24 01:04:43;;;;;;;6.53;1.40;;;;;;;;;;5051063;28;20110;-63
2024/01/24 01:07:10;;;;;;;4.80;1.97;;;;;;;;;;5050675;28;20423;-63
2024/01/24 01:09:36;;;;;;;6.27;1.70;;;;;;;;;;5050803;28;20037;-63
2024/01/24 01:12:02;;;;;;;3.63;1.37;;;;;;;;;;5050713;28;20494;-63
2024/01/24 01:14:28;;;;;;;5.00;1.40;;;;;;;;;;5049809;28;20119;-63
2024/01/24 01:16:54;;;;;;;7.30;1.70;;;;;;;;;;5050904;28;20514;-63
2024/01/24 01:19:20;;;;;;;2.70;1.27;;;;;;;;;;5050736;28;20392;-63
2024/01/24 01:21:46;;;;;;;5.83;1.70;;;;;;;;;;5050242;28;20045;-63
2024/01/24 01:24:12;;;;;;;4.47;1.57;;;;;;;;;;5050155;28;20048;-63
2024/01/24 01:26:39;;;;;;;5.40;1.17;;;;;;;;;;5049878;28;20041;-64
2024/01/24 01:29:05;;;;;;;4.67;1.40;;;;;;;;;;5049771;28;20045;-63
2024/01/24 01:31:31;;;;;;;6.87;1.10;;;;;;;;;;5050576;28;20558;-63
2024/01/24 01:33:58;;;;;;;6.60;1.30;;;;;;;;;;5049802;28;20131;-63
2024/01/24 01:36:23;;;;;;;4.73;1.43;;;;;;;;;;5050126;28;20461;-64
2024/01/24 01:38:50;;;;;;;3.70;1.27;;;;;;;;;;5050374;28;20049;-63
2024/01/24 01:41:16;;;;;;;2.20;0.80;;;;;;;;;;5050116;28;20518;-64
2024/01/24 01:43:44;;;;;;;3.20;1.17;;;;;;;;;;5049767;28;20144;-63
2024/01/24 01:46:21;;;;;;;3.20;1.03;;;;;;;;;;5049052;28;20064;-64
2024/01/24 01:48:49;;;;;;;5.17;0.90;;;;;;;;;;5050244;28;20051;-63
2024/01/24 01:51:16;;;;;;;4.40;0.90;;;;;;;;;;5049899;28;20572;-64
2024/01/24 01:53:42;;;;;;;2.83;1.37;;;;;;;;;;5049590;28;20036;-64
2024/01/24 01:56:09;;;;;;;4.17;1.17;;;;;;;;;;5049492;28;20049;-64
2024/01/24 01:58:36;;;;;;;2.50;1.20;;;;;;;;;;5050157;28;20044;-63
2024/01/24 02:01:02;;;;;;;3.03;1.57;;;;;;;;;;5049090;28;20053;-63
2024/01/24 02:03:29;;;;;;;3.40;1.30;;;;;;;;;;5050050;28;20045;-63
2024/01/24 02:05:55;;;;;;;5.03;1.40;;;;;;;;;;5049966;28;20045;-64
2024/01/24 02:08:21;;;;;;;3.50;1.30;;;;;;;;;;5050001;28;20461;-63
2024/01/24 02:10:47;;;;;;;6.83;1.43;;;;;;;;;;5049975;28;20049;-63
2024/01/24 02:13:14;;;;;;;5.50;1.33;;;;;;;;;;5049540;28;20045;-64
2024/01/24 02:15:40;;;;;;;5.07;1.10;;;;;;;;;;5049370;28;20049;-64
2024/01/24 02:18:07;;;;;;;4.43;0.90;;;;;;;;;;5048570;28;20052;-63
2024/01/24 02:20:34;;;;;;;3.53;1.07;;;;;;;;;;5049456;28;20396;-63
2024/01/24 02:23:00;;;;;;;11.33;2.00;;;;;;;;;;5049547;28;20052;-64
2024/01/24 02:25:26;;;;;;;7.93;2.60;;;;;;;;;;5048119;28;20457;-64
2024/01/24 02:27:53;;;;;;;10.80;2.37;;;;;;;;;;5047266;28;20053;-65
2024/01/24 02:30:19;;;;;;;6.07;2.07;;;;;;;;;;5048401;28;20103;-64
2024/01/24 02:32:45;;;;;;;14.20;3.13;;;;;;;;;;5049350;28;20126;-64
2024/01/24 02:35:11;;;;;;;4.47;2.50;;;;;;;;;;5048815;28;20120;-65
2024/01/24 02:37:38;;;;;;;13.60;3.13;;;;;;;;;;5048662;28;20049;-65
2024/01/24 02:40:05;;;;;;;9.50;3.30;;;;;;;;;;5048772;28;20045;-64
2024/01/24 02:42:31;;;;;;;8.53;3.33;;;;;;;;;;5047128;28;20044;-65
2024/01/24 02:44:57;;;;;;;9.17;3.20;;;;;;;;;;5048751;28;20049;-65
2024/01/24 02:47:23;;;;;;;8.90;2.40;;;;;;;;;;5048896;28;20053;-64
2024/01/24 02:49:49;;;;;;;9.10;3.20;;;;;;;;;;5048642;28;20099;-64
2024/01/24 02:52:15;;;;;;;8.10;2.37;;;;;;;;;;5048557;28;20387;-64
2024/01/24 02:54:42;;;;;;;10.67;2.23;;;;;;;;;;5048818;28;20144;-64
2024/01/24 02:57:08;;;;;;;10.70;2.00;;;;;;;;;;5048170;28;20128;-64
2024/01/24 02:59:34;;;;;;;9.47;1.80;;;;;;;;;;5048686;28;20081;-64
2024/01/24 03:02:00;;;;;;;11.70;2.17;;;;;;;;;;5047430;28;20495;-64
2024/01/24 03:04:27;;;;;;;16.80;2.83;;;;;;;;;;5048986;28;20105;-64
2024/01/24 03:06:55;;;;;;;13.47;2.53;;;;;;;;;;5048740;28;20055;-64
2024/01/24 03:09:22;;;;;;;14.20;4.03;;;;;;;;;;5048849;28;20057;-64
2024/01/24 03:11:48;;;;;;;20.37;3.00;;;;;;;;;;5047518;28;20045;-64
2024/01/24 03:14:14;;;;;;;12.73;2.40;;;;;;;;;;5046786;28;20059;-63
2024/01/24 03:16:40;;;;;;;15.80;3.73;;;;;;;;;;5048412;28;20514;-63
2024/01/24 03:19:07;;;;;;;16.57;2.87;;;;;;;;;;5048575;28;20056;-64
2024/01/24 03:21:33;;;;;;;15.87;4.13;;;;;;;;;;5048454;28;20099;-64
2024/01/24 03:23:59;;;;;;;15.10;2.60;;;;;;;;;;5048491;28;20048;-64
2024/01/24 03:26:25;;;;;;;17.67;3.10;;;;;;;;;;5047845;28;20543;-64
2024/01/24 03:28:51;;;;;;;15.03;2.83;;;;;;;;;;5048430;28;20459;-63
2024/01/24 03:31:17;;;;;;;13.97;2.13;;;;;;;;;;5048174;28;20064;-64
2024/01/24 03:33:43;;;;;;;11.20;2.30;;;;;;;;;;5048200;28;20102;-64
2024/01/24 03:36:09;;;;;;;21.07;4.67;;;;;;;;;;5047489;28;20094;-64
2024/01/24 03:38:35;;;;;;;23.60;4.00;;;;;;;;;;5047398;28;20045;-64
2024/01/24 03:41:01;;;;;;;15.00;2.60;;;;;;;;;;5048017;28;20084;-64
2024/01/24 03:43:27;;;;;;;16.17;3.33;;;;;;;;;;5048250;28;20041;-64
2024/01/24 03:45:53;;;;;;;13.43;2.97;;;;;;;;;;5047929;28;20053;-63
2024/01/24 03:48:19;;;;;;;18.10;2.83;;;;;;;;;;5047810;28;20547;-64
2024/01/24 03:50:45;;;;;;;20.67;3.93;;;;;;;;;;5048252;28;20057;-63
2024/01/24 03:53:11;;;;;;;24.23;4.00;;;;;;;;;;5047122;28;20419;-64
2024/01/24 03:55:37;;;;;;;19.83;4.10;;;;;;;;;;5046726;28;20044;-63
2024/01/24 03:58:03;;;;;;;23.03;3.97;;;;;;;;;;5047792;28;20049;-63
2024/01/24 04:00:29;;;;;;;26.57;4.17;;;;;;;;;;5047959;28;20045;-63
2024/01/24 04:02:55;;;;;;;17.67;5.27;;;;;;;;;;5046658;28;20090;-64
2024/01/24 04:05:21;;;;;;;31.20;5.70;;;;;;;;;;5048083;28;20095;-64
2024/01/24 04:07:47;;;;;;;30.37;4.70;;;;;;;;;;5048080;28;20045;-64
2024/01/24 04:10:15;;;;;;;25.10;5.47;;;;;;;;;;5050897;28;20053;-64
2024/01/24 04:12:41;;;;;;;31.67;5.23;;;;;;;;;;5051860;28;20056;-63
2024/01/24 04:15:07;;;;;;;24.80;4.40;;;;;;;;;;5051720;28;20045;-64
2024/01/24 04:17:33;;;;;;;25.60;5.43;;;;;;;;;;5051722;28;20491;-64
2024/01/24 04:19:59;;;;;;;23.37;4.20;;;;;;;;;;5052174;28;20099;-64
2024/01/24 04:22:25;;;;;;;27.27;5.30;;;;;;;;;;5051777;28;20086;-64
2024/01/24 04:24:51;;;;;;;24.50;4.63;;;;;;;;;;5051734;28;20049;-64
2024/01/24 04:27:18;;;;;;;25.40;4.00;;;;;;;;;;5051370;28;20045;-63
2024/01/24 04:29:44;;;;;;;22.03;4.83;;;;;;;;;;5050500;28;20048;-64
2024/01/24 04:32:10;;;;;;;21.77;4.37;;;;;;;;;;5051266;28;20052;-64
2024/01/24 04:34:36;;;;;;;26.70;4.53;;;;;;;;;;5051032;28;20106;-64
2024/01/24 04:37:02;;;;;;;33.07;6.47;;;;;;;;;;5051404;28;20091;-64
2024/01/24 04:39:29;;;;;;;21.53;4.57;;;;;;;;;;5050851;28;20484;-64
2024/01/24 04:41:55;;;;;;;22.50;5.70;;;;;;;;;;5049794;28;20053;-64
2024/01/24 04:44:21;;;;;;;19.10;3.43;;;;;;;;;;5051324;28;20057;-64
2024/01/24 04:46:47;;;;;;;27.27;6.83;;;;;;;;;;5051038;28;20045;-64
2024/01/24 04:49:13;;;;;;;21.97;5.00;;;;;;;;;;5050676;28;20529;-64
2024/01/24 04:51:39;;;;;;;32.00;7.23;;;;;;;;;;5051290;28;20091;-64
2024/01/24 04:54:05;;;;;;;19.77;5.27;;;;;;;;;;5050901;28;20053;-64
2024/01/24 04:56:31;;;;;;;25.00;6.03;;;;;;;;;;5050863;28;20452;-64
2024/01/24 04:58:57;;;;;;;27.07;5.57;;;;;;;;;;5050867;28;20079;-64
2024/01/24 05:01:23;;;;;;;27.33;5.50;;;;;;;;;;5050145;28;20045;-64
2024/01/24 05:03:49;;;;;;;40.03;7.27;;;;;;;;;;5049658;28;20049;-64
2024/01/24 05:06:15;;;;;;;28.57;5.57;;;;;;;;;;5050504;28;20049;-64
2024/01/24 05:08:41;;;;;;;34.33;6.50;;;;;;;;;;5050977;28;20144;-64
2024/01/24 05:11:07;;;;;;;30.10;6.33;;;;;;;;;;5050551;28;20041;-64
2024/01/24 05:13:33;;;;;;;32.17;5.97;;;;;;;;;;5050560;28;20049;-64
2024/01/24 05:15:59;;;;;;;39.80;7.63;;;;;;;;;;5050656;28;20099;-64
2024/01/24 05:18:25;;;;;;;29.10;6.27;;;;;;;;;;5050662;28;20091;-64
2024/01/24 05:20:51;;;;;;;28.23;6.03;;;;;;;;;;5050285;28;20045;-64
2024/01/24 05:23:17;;;;;;;31.13;6.07;;;;;;;;;;5049395;28;20510;-64
2024/01/24 05:25:43;;;;;;;26.83;5.57;;;;;;;;;;5050189;28;20496;-64
2024/01/24 05:28:11;;;;;;;28.30;6.40;;;;;;;;;;5050509;28;20041;-64
2024/01/24 05:30:37;;;;;;;32.37;6.93;;;;;;;;;;5050318;28;20055;-64
2024/01/24 05:33:03;;;;;;;30.70;6.20;;;;;;;;;;5050303;28;20033;-64
2024/01/24 05:35:29;;;;;;;24.80;5.43;;;;;;;;;;5049711;28;20447;-64
2024/01/24 05:37:55;;;;;;;29.93;5.57;;;;;;;;;;5049614;28;20092;-64
2024/01/24 05:40:21;;;;;;;25.23;6.83;;;;;;;;;;5050154;28;20088;-64
2024/01/24 05:42:48;;;;;;;28.03;5.13;;;;;;;;;;5050627;28;20049;-64
2024/01/24 05:45:14;;;;;;;34.47;7.27;;;;;;;;;;5049750;28;20587;-64
2024/01/24 05:47:42;;;;;;;21.97;5.43;;;;;;;;;;5050131;28;20060;-64
2024/01/24 05:50:12;;;;;;;30.53;6.27;;;;;;;;;;5049813;28;20422;-64
2024/01/24 05:52:41;;;;;;;33.40;7.83;;;;;;;;;;5049570;28;20052;-64
2024/01/24 05:55:09;;;;;;;30.47;6.43;;;;;;;;;;5049837;28;20538;-64
2024/01/24 05:57:39;;;;;;;30.27;7.20;;;;;;;;;;5049636;28;20045;-64
2024/01/24 06:00:08;;;;;;;41.60;8.43;;;;;;;;;;5048992;28;20041;-64
2024/01/24 06:02:34;;;;;;;33.60;7.40;;;;;;;;;;5047365;28;20056;-64
2024/01/24 06:05:01;;;;;;;30.90;6.93;;;;;;;;;;5049843;28;20090;-64
2024/01/24 06:07:27;;;;;;;39.50;6.93;;;;;;;;;;5047154;28;20076;-65
2024/01/24 06:09:52;;;;;;;35.47;8.83;;;;;;;;;;5049547;28;20083;-65
2024/01/24 06:12:19;;;;;;;34.27;7.40;;;;;;;;;;5049744;28;20590;-65
2024/01/24 06:14:45;;;;;;;41.73;8.20;;;;;;;;;;5048974;28;20086;-65
2024/01/24 06:17:11;;;;;;;37.67;8.23;;;;;;;;;;5049758;28;20056;-65
2024/01/24 06:19:37;;;;;;;36.03;6.07;;;;;;;;;;5049394;28;20045;-65
2024/01/24 06:22:03;;;;;;;36.37;7.00;;;;;;;;;;5049689;28;20041;-65
2024/01/24 06:24:29;;;;;;;41.10;7.47;;;;;;;;;;5049488;28;20078;-65
2024/01/24 06:26:55;;;;;;;52.43;7.83;;;;;;;;;;5049526;28;20048;-65
2024/01/24 06:29:21;;;;;;;37.50;7.87;;;;;;;;;;5047512;28;20056;-65
2024/01/24 06:31:47;;;;;;;28.73;6.13;;;;;;;;;;5048292;28;20045;-65
2024/01/24 06:34:13;;;;;;;49.67;9.53;;;;;;;;;;5049289;28;20339;-65
2024/01/24 06:36:39;;;;;;;46.30;9.97;;;;;;;;;;5048970;28;20064;-65
2024/01/24 06:39:09;;;;;;;36.63;9.20;;;;;;;;;;5048497;28;20907;-65
2024/01/24 06:41:36;;;;;;;34.30;7.23;;;;;;;;;;5048005;28;20548;-65
2024/01/24 06:44:05;;;;;;;44.33;9.27;;;;;;;;;;5048879;28;20231;-65
2024/01/24 06:46:31;;;;;;;34.13;9.27;;;;;;;;;;5048664;28;20098;-65
2024/01/24 06:48:57;;;;;;;40.53;8.47;;;;;;;;;;5048555;28;20067;-65
2024/01/24 06:51:23;;;;;;;37.00;9.33;;;;;;;;;;5048546;28;20494;-65
2024/01/24 06:53:49;;;;;;;52.07;9.13;;;;;;;;;;5048099;28;20080;-65
2024/01/24 06:56:15;;;;;;;34.80;7.17;;;;;;;;;;5048149;28;20083;-65
2024/01/24 06:58:41;;;;;;;32.07;7.03;;;;;;;;;;5047399;28;20057;-65
2024/01/24 07:01:07;;;;;;;44.43;9.77;;;;;;;;;;5047492;28;20140;-65
2024/01/24 07:03:33;;;;;;;35.87;8.13;;;;;;;;;;5048872;28;20427;-65
2024/01/24 07:06:00;;;;;;;43.37;7.67;;;;;;;;;;5047545;28;20049;-65
2024/01/24 07:08:26;;;;;;;37.07;7.80;;;;;;;;;;5048558;28;20049;-65
2024/01/24 07:10:52;;;;;;;46.17;9.13;;;;;;;;;;5048501;28;20503;-65
2024/01/24 07:13:19;;;;;;;43.93;9.67;;;;;;;;;;5048048;28;20065;-65
2024/01/24 07:15:45;;;;;;;35.27;8.83;;;;;;;;;;5048346;28;20127;-65
2024/01/24 07:18:11;;;;;;;40.33;9.40;;;;;;;;;;5048516;28;20103;-65
2024/01/24 07:20:38;;;;;;;47.50;12.20;;;;;;;;;;5048419;28;20053;-65
2024/01/24 07:23:04;;;;;;;41.47;8.53;;;;;;;;;;5048370;28;20419;-65
2024/01/24 07:25:30;;;;;;;49.90;10.87;;;;;;;;;;5047862;28;20048;-65
2024/01/24 07:27:56;;;;;;;41.77;8.70;;;;;;;;;;5047992;28;20045;-65
2024/01/24 07:30:22;;;;;;;42.83;9.10;;;;;;;;;;5047280;28;20084;-65
2024/01/24 07:32:49;;;;;;;39.23;8.37;;;;;;;;;;5048332;28;20045;-65
2024/01/24 07:35:15;;;;;;;38.67;6.87;;;;;;;;;;5048515;28;20056;-65
2024/01/24 07:37:41;;;;;;;41.97;9.73;;;;;;;;;;5046773;28;20048;-65
2024/01/24 07:40:07;;;;;;;35.77;9.03;;;;;;;;;;5048175;28;20041;-65
2024/01/24 07:42:33;;;;;;;38.07;9.27;;;;;;;;;;5047906;28;20045;-65
2024/01/24 07:45:00;;;;;;;35.37;7.53;;;;;;;;;;5047264;28;20053;-65
2024/01/24 07:47:26;;;;;;;44.23;8.57;;;;;;;;;;5046191;28;20049;-65
2024/01/24 07:49:53;;;;;;;38.20;8.50;;;;;;;;;;5046849;28;20493;-65
2024/01/24 07:52:18;;;;;;;29.50;6.73;;;;;;;;;;5047812;28;20469;-65
2024/01/24 07:54:45;;;;;;;46.37;10.20;;;;;;;;;;5044400;28;20037;-65
2024/01/24 07:57:11;;;;;;;41.30;9.90;;;;;;;;;;5046847;28;20419;-64
2024/01/24 07:59:36;;;;;;;34.63;7.80;;;;;;;;;;5047344;28;20037;-65
2024/01/24 08:02:03;;;;;;;42.60;8.87;;;;;;;;;;5044727;28;20045;-65
2024/01/24 08:04:31;;;;;;;42.60;7.10;;;;;;;;;;5045949;28;20048;-65
2024/01/24 08:06:57;;;;;;;37.23;8.00;;;;;;;;;;5047016;28;20064;-65
2024/01/24 08:09:23;;;;;;;32.43;8.53;;;;;;;;;;5042927;28;20442;-65
2024/01/24 08:11:49;;;;;;;39.23;7.47;;;;;;;;;;5043587;28;20120;-64
2024/01/24 08:14:16;;;;;;;32.67;6.53;;;;;;;;;;5042687;28;20037;-64
2024/01/24 08:16:58;;;;;;;45.23;10.23;;;;;;;;;;5046504;28;20484;-64
2024/01/24 08:19:24;;;;;;;52.27;9.97;;;;;;;;;;5053893;28;20121;-65
2024/01/24 08:21:51;;;;;;;40.10;8.50;;;;;;;;;;5047388;28;20132;-65
2024/01/24 08:24:17;;;;;;;41.87;10.57;;;;;;;;;;5046651;28;20128;-64
2024/01/24 08:26:44;;;;;;;36.77;7.77;;;;;;;;;;5046992;28;20073;-64
2024/01/24 08:29:10;;;;;;;42.00;8.77;;;;;;;;;;5045074;28;20152;-64
2024/01/24 08:31:36;;;;;;;38.47;7.60;;;;;;;;;;5045052;28;20163;-64
2024/01/24 08:34:02;;;;;;;41.27;10.97;;;;;;;;;;5046644;28;20447;-64
2024/01/24 08:36:28;;;;;;;43.50;9.07;;;;;;;;;;5047680;28;20049;-65
2024/01/24 08:38:54;;;;;;;48.13;12.87;;;;;;;;;;5047062;28;20051;-64
2024/01/24 08:41:20;;;;;;;41.33;11.83;;;;;;;;;;5047243;28;20041;-64
2024/01/24 08:43:46;;;;;;;44.23;9.50;;;;;;;;;;5046833;28;20045;-64
2024/01/24 08:46:12;;;;;;;47.93;9.80;;;;;;;;;;5048088;28;20516;-64
2024/01/24 08:48:38;;;;;;;48.20;11.87;;;;;;;;;;5046147;28;20049;-64
2024/01/24 08:51:04;;;;;;;45.47;12.53;;;;;;;;;;5046952;28;20507;-64
2024/01/24 08:53:30;;;;;;;38.17;8.93;;;;;;;;;;5059464;28;20163;-64
2024/01/24 08:55:56;;;;;;;50.57;11.77;;;;;;;;;;5050447;28;20148;-64
2024/01/24 08:58:22;;;;;;;41.80;9.80;;;;;;;;;;5050935;28;20044;-64
2024/01/24 09:00:48;;;;;;;37.63;8.00;;;;;;;;;;5050237;28;20048;-64
2024/01/24 09:03:14;;;;;;;47.47;9.13;;;;;;;;;;5051121;28;20045;-64
2024/01/24 09:05:41;;;;;;;39.43;7.83;;;;;;;;;;5050677;28;20087;-64
2024/01/24 09:08:08;;;;;;;38.57;8.07;;;;;;;;;;5050533;28;20091;-64
2024/01/24 09:10:36;;;;;;;43.40;8.60;;;;;;;;;;5050157;28;20427;-64
2024/01/24 09:13:02;;;;;;;43.27;9.27;;;;;;;;;;5049442;28;20487;-64
2024/01/24 09:15:28;;;;;;;42.83;8.53;;;;;;;;;;5051140;28;20085;-64
2024/01/24 09:17:54;;;;;;;37.00;8.03;;;;;;;;;;5049887;28;20084;-64
2024/01/24 09:20:20;;;;;;;37.20;9.20;;;;;;;;;;5049164;28;20444;-64
2024/01/24 09:22:46;;;;;;;33.97;8.27;;;;;;;;;;5049986;28;20388;-64
2024/01/24 09:25:12;;;;;;;43.77;7.90;;;;;;;;;;5050247;28;20419;-64
2024/01/24 09:27:38;;;;;;;41.97;9.93;;;;;;;;;;5048816;28;20519;-64
2024/01/24 09:30:05;;;;;;;38.77;6.93;;;;;;;;;;5050486;28;20499;-64
2024/01/24 09:32:31;;;;;;;35.97;8.27;;;;;;;;;;5049329;28;20055;-64
2024/01/24 09:34:57;;;;;;;40.17;8.03;;;;;;;;;;5043508;28;20192;-64
2024/01/24 09:37:23;;;;;;;42.93;10.90;;;;;;;;;;5031315;28;20045;-64
2024/01/24 09:39:49;;;;;;;37.50;7.80;;;;;;;;;;5050031;28;20040;-64
2024/01/24 09:42:20;;;;;;;41.60;8.03;;;;;;;;;;5049378;28;20098;-64
2024/01/24 09:44:48;;;;;;;40.43;8.20;;;;;;;;;;5049620;28;20143;-64
2024/01/24 09:47:17;;;;;;;37.77;8.00;;;;;;;;;;5049501;28;20093;-64
2024/01/24 09:49:44;;;;;;;36.70;7.60;;;;;;;;;;5049719;28;20103;-64
2024/01/24 09:52:11;;;;;;;45.33;8.33;;;;;;;;;;5049264;28;20045;-64
2024/01/24 09:54:37;;;;;;;42.17;10.00;;;;;;;;;;5048609;28;20049;-64
2024/01/24 09:57:03;;;;;;;33.43;7.23;;;;;;;;;;5048574;28;20049;-64
2024/01/24 09:59:29;;;;;;;38.83;9.40;;;;;;;;;;5049101;28;20104;-64
2024/01/24 10:01:55;;;;;;;36.13;8.93;;;;;;;;;;5049269;28;20071;-64
2024/01/24 10:04:22;;;;;;;38.83;9.30;;;;;;;;;;5047420;28;20045;-64
2024/01/24 10:06:49;;;;;;;35.03;7.20;;;;;;;;;;5049334;28;20491;-64
2024/01/24 10:09:15;;;;;;;33.67;8.07;;;;;;;;;;5049165;28;20403;-64
2024/01/24 10:11:41;;;;;;;35.83;8.83;;;;;;;;;;5049715;28;20496;-64
2024/01/24 10:14:07;;;;;;;26.77;6.40;;;;;;;;;;5049223;28;20041;-64
2024/01/24 10:16:33;;;;;;;34.20;7.60;;;;;;;;;;5048340;28;20052;-64
2024/01/24 10:18:59;;;;;;;41.03;8.87;;;;;;;;;;5048730;28;20476;-64
2024/01/24 10:21:26;;;;;;;41.90;8.93;;;;;;;;;;5049308;28;20144;-64
2024/01/24 10:23:59;;;;;;;33.60;8.03;;;;;;;;;;5048152;28;20045;-64
2024/01/24 10:26:26;;;;;;;30.58;7.07;;;;;;;;;;5049676;28;20033;-64
2024/01/24 10:28:53;;;;;;;40.43;9.47;;;;;;;;;;5049292;28;20481;-64
2024/01/24 10:31:20;;;;;;;34.80;7.40;;;;;;;;;;5047269;28;20041;-64
2024/01/24 10:33:49;;;;;;;25.70;6.27;;;;;;;;;;5047950;28;20053;-64
2024/01/24 10:36:15;;;;;;;24.90;6.40;;;;;;;;;;5048833;28;20056;-64
2024/01/24 10:38:44;;;;;;;33.53;7.63;;;;;;;;;;5048925;28;20483;-64
2024/01/24 10:41:13;;;;;;;31.00;7.10;;;;;;;;;;5048032;28;20483;-64
2024/01/24 10:43:43;;;;;;;29.97;7.23;;;;;;;;;;5047367;28;20044;-64
2024/01/24 10:46:09;;;;;;;27.70;6.93;;;;;;;;;;5048310;28;20543;-64
2024/01/24 10:48:36;;;;;;;35.10;6.67;;;;;;;;;;5048913;28;20522;-64
2024/01/24 10:51:02;;;;;;;34.20;7.90;;;;;;;;;;5048744;28;20048;-64
2024/01/24 10:53:31;;;;;;;26.60;5.83;;;;;;;;;;5055208;28;20049;-64
2024/01/24 10:55:58;;;;;;;39.33;8.77;;;;;;;;;;5048000;28;20053;-64
2024/01/24 10:58:24;;;;;;;31.90;7.93;;;;;;;;;;5047309;28;20056;-64
2024/01/24 11:00:52;;;;;;;30.47;6.57;;;;;;;;;;5048944;28;20415;-64
2024/01/24 11:03:18;;;;;;;28.30;6.47;;;;;;;;;;5047805;28;20052;-64
2024/01/24 11:05:47;;;;;;;32.53;7.30;;;;;;;;;;5047520;28;20037;-64
2024/01/24 11:08:13;;;;;;;36.20;7.13;;;;;;;;;;5047716;28;20041;-64
2024/01/24 11:10:43;;;;;;;33.17;8.07;;;;;;;;;;5047932;28;20091;-63
2024/01/24 11:13:11;;;;;;;34.93;6.77;;;;;;;;;;5048344;28;20045;-63
2024/01/24 11:15:37;;;;;;;26.80;7.40;;;;;;;;;;5047144;28;20763;-64
2024/01/24 11:18:22;;;;;;;26.40;6.10;;;;;;;;;;5047570;28;20128;-64
2024/01/24 11:20:56;;;;;;;36.73;7.17;;;;;;;;;;5046694;28;20052;-64
2024/01/24 11:23:40;;;;;;;28.63;5.77;;;;;;;;;;5048417;28;20140;-64
2024/01/24 11:26:07;;;;;;;30.17;7.40;;;;;;;;;;5048241;28;20098;-64
2024/01/24 11:28:34;;;;;;;28.37;6.03;;;;;;;;;;5041563;28;20116;-64
2024/01/24 11:31:00;;;;;;;26.10;5.37;;;;;;;;;;5044711;28;20073;-64
2024/01/24 11:33:27;;;;;;;29.70;7.50;;;;;;;;;;5046476;28;20507;-63
2024/01/24 11:35:53;;;;;;;36.73;6.67;;;;;;;;;;5040255;28;20052;-63
2024/01/24 11:38:22;;;;;;;27.83;6.53;;;;;;;;;;5047763;28;20053;-63
2024/01/24 11:40:52;;;;;;;37.40;6.83;;;;;;;;;;5047800;28;20546;-63
2024/01/24 11:43:24;;;;;;;29.43;6.27;;;;;;;;;;5048708;28;20056;-63
2024/01/24 11:45:58;;;;;;;31.07;7.13;;;;;;;;;;5031514;28;20049;-63
2024/01/24 11:48:28;;;;;;;24.80;6.00;;;;;;;;;;5048509;28;20565;-64
2024/01/24 11:50:55;;;;;;;21.40;4.67;;;;;;;;;;5046458;28;20040;-63
2024/01/24 11:53:21;;;;;;;34.67;6.97;;;;;;;;;;5047509;28;20124;-64
2024/01/24 11:55:57;;;;;;;21.57;5.37;;;;;;;;;;5047141;28;20618;-63
2024/01/24 11:58:27;;;;;;;27.40;6.70;;;;;;;;;;5046724;28;20140;-63
2024/01/24 12:00:56;;;;;;;24.03;5.63;;;;;;;;;;5047426;28;20095;-63
2024/01/24 12:03:22;;;;;;;31.47;6.30;;;;;;;;;;5045108;28;20045;-62
2024/01/24 12:05:48;;;;;;;31.93;7.77;;;;;;;;;;5046983;28;20045;-63
2024/01/24 12:08:15;;;;;;;36.57;7.03;;;;;;;;;;5036369;28;20045;-62
2024/01/24 12:10:41;;;;;;;28.37;7.63;;;;;;;;;;5047586;28;21043;-63
2024/01/24 12:13:07;;;;;;;20.67;5.17;;;;;;;;;;5047515;28;20037;-62
2024/01/24 12:15:34;;;;;;;26.87;5.47;;;;;;;;;;5047471;28;20441;-63
2024/01/24 12:18:08;;;;;;;29.83;5.87;;;;;;;;;;5047643;28;20443;-62
2024/01/24 12:20:35;;;;;;;24.17;6.40;;;;;;;;;;5047848;28;20092;-62
2024/01/24 12:23:04;;;;;;;25.93;5.03;;;;;;;;;;5047288;28;20415;-62
2024/01/24 12:25:31;;;;;;;25.27;5.87;;;;;;;;;;5047528;28;20052;-62
2024/01/24 12:28:01;;;;;;;29.10;6.60;;;;;;;;;;5047297;28;20088;-63
2024/01/24 12:30:32;;;;;;;21.00;5.80;;;;;;;;;;5049140;28;20041;-63
2024/01/24 12:32:58;;;;;;;25.17;6.27;;;;;;;;;;5051525;28;20083;-63
2024/01/24 12:35:24;;;;;;;29.37;5.97;;;;;;;;;;5051257;28;20040;-62
2024/01/24 12:37:51;;;;;;;34.43;7.20;;;;;;;;;;5050986;28;20088;-63
2024/01/24 12:40:17;;;;;;;20.80;6.47;;;;;;;;;;5050939;28;20049;-63
2024/01/24 12:42:43;;;;;;;37.87;7.73;;;;;;;;;;5051426;28;20049;-62
2024/01/24 12:45:14;;;;;;;26.20;6.97;;;;;;;;;;5050350;28;20191;-62
2024/01/24 12:47:43;;;;;;;29.30;7.17;;;;;;;;;;5051116;28;20132;-62
2024/01/24 12:50:10;;;;;;;29.10;6.47;;;;;;;;;;5051124;28;20106;-62
2024/01/24 12:52:40;;;;;;;27.60;6.90;;;;;;;;;;5050929;28;20041;-62
2024/01/24 12:55:07;;;;;;;31.40;7.10;;;;;;;;;;5051055;28;20040;-63
2024/01/24 12:57:33;;;;;;;24.53;5.67;;;;;;;;;;5050969;28;20053;-63
2024/01/24 12:59:59;;;;;;;31.93;6.53;;;;;;;;;;5051027;28;20124;-63
2024/01/24 13:02:26;;;;;;;24.17;6.17;;;;;;;;;;5050949;28;20053;-63
2024/01/24 13:04:52;;;;;;;26.17;6.03;;;;;;;;;;5050616;28;20059;-63
2024/01/24 13:07:18;;;;;;;21.60;5.67;;;;;;;;;;5050818;28;20048;-63
2024/01/24 13:09:44;;;;;;;27.40;5.30;;;;;;;;;;5050878;28;20093;-63
2024/01/24 13:12:11;;;;;;;30.17;6.30;;;;;;;;;;5050983;28;20052;-63
2024/01/24 13:14:37;;;;;;;29.13;5.53;;;;;;;;;;5050340;28;20072;-63
2024/01/24 13:17:03;;;;;;;28.77;5.60;;;;;;;;;;5050637;28;20060;-63
2024/01/24 13:19:32;;;;;;;28.33;7.10;;;;;;;;;;5050782;28;20045;-63
2024/01/24 13:21:59;;;;;;;22.97;6.43;;;;;;;;;;5050640;28;20051;-63
2024/01/24 13:24:30;;;;;;;26.63;5.63;;;;;;;;;;5050873;28;20094;-63
2024/01/24 13:26:57;;;;;;;23.73;5.80;;;;;;;;;;5049873;28;20049;-63
2024/01/24 13:29:23;;;;;;;33.53;8.13;;;;;;;;;;5050521;28;20116;-63
2024/01/24 13:31:49;;;;;;;29.80;6.17;;;;;;;;;;5050527;28;20107;-63
2024/01/24 13:34:15;;;;;;;33.30;6.93;;;;;;;;;;5050588;28;20045;-63
2024/01/24 13:36:43;;;;;;;25.63;5.93;;;;;;;;;;5050059;28;20041;-63
2024/01/24 13:39:14;;;;;;;32.27;6.63;;;;;;;;;;5050068;28;20056;-63
2024/01/24 13:41:41;;;;;;;27.43;6.07;;;;;;;;;;5049606;28;20088;-63
2024/01/24 13:44:07;;;;;;;25.20;6.40;;;;;;;;;;5050214;28;20099;-63
2024/01/24 13:46:34;;;;;;;28.13;6.30;;;;;;;;;;5050211;28;20056;-63
2024/01/24 13:49:00;;;;;;;28.60;6.83;;;;;;;;;;5049448;28;20156;-63
2024/01/24 13:51:26;;;;;;;29.50;6.13;;;;;;;;;;5050079;28;20037;-63
2024/01/24 13:53:52;;;;;;;24.83;5.73;;;;;;;;;;5050067;28;20086;-63
2024/01/24 13:56:18;;;;;;;32.57;6.73;;;;;;;;;;5049385;28;20053;-63
2024/01/24 13:58:44;;;;;;;32.87;6.73;;;;;;;;;;5049837;28;20048;-63
2024/01/24 14:01:10;;;;;;;27.93;6.37;;;;;;;;;;5049632;28;20049;-63
2024/01/24 14:03:36;;;;;;;26.83;6.40;;;;;;;;;;5049760;28;20045;-63
2024/01/24 14:06:02;;;;;;;36.03;6.33;;;;;;;;;;5049533;28;20061;-63
2024/01/24 14:08:30;;;;;;;33.40;7.27;;;;;;;;;;5048317;28;20048;-63
2024/01/24 14:10:56;;;;;;;37.60;6.33;;;;;;;;;;5049847;28;20531;-63
2024/01/24 14:13:22;;;;;;;32.70;7.67;;;;;;;;;;5049662;28;20102;-63
2024/01/24 14:15:48;;;;;;;32.37;5.70;;;;;;;;;;5049632;28;20044;-63
2024/01/24 14:18:14;;;;;;;26.63;6.23;;;;;;;;;;5049705;28;20051;-63
2024/01/24 14:20:40;;;;;;;28.47;7.33;;;;;;;;;;5049497;28;20049;-63
2024/01/24 14:23:08;;;;;;;29.87;5.83;;;;;;;;;;5049264;28;20044;-63
2024/01/24 14:25:34;;;;;;;28.50;6.40;;;;;;;;;;5049402;28;20126;-63
2024/01/24 14:28:00;;;;;;;31.40;6.30;;;;;;;;;;5048926;28;20053;-63